Terminal Aerodrome Forecast
Issued by NWS

Home | Current Version | Previous Version | Text Only | Print | Product List | Glossary On
Versions: 1 2 3 4 5 6 7 8 9 10 11 12 13 14 15 16
000
FTUS44 KEPZ 280829 AAA
TAFLRU
TAF AMD
KLRU 280829Z 2808/2906 28007KT P6SM SCT090 BKN250
      TEMPO 2808/2810 20020G30KT
     FM281800 16005KT P6SM BKN250
     FM290000 20007KT P6SM VCTS BKN050CB BKN250=

USA.gov is the U.S. government's official web portal to all federal, state and local government web resources and services.